createdAt,value
2023-05-01T00:02:37.164Z,8.43
2023-05-01T00:07:39.560Z,9.43
2023-05-01T00:12:41.789Z,8.57
2023-05-01T00:17:43.976Z,8.90
2023-05-01T00:22:46.147Z,8.20
2023-05-01T00:27:48.700Z,7.57
2023-05-01T00:32:50.858Z,7.07
2023-05-01T00:37:53.005Z,7.10
2023-05-01T00:42:55.682Z,6.33
2023-05-01T00:47:58.618Z,7.90
2023-05-01T00:53:01.068Z,7.00
2023-05-01T00:58:04.111Z,7.33
2023-05-01T01:03:06.460Z,7.13
2023-05-01T01:08:30.576Z,7.73
2023-05-01T01:13:59.170Z,7.20
2023-05-01T01:19:42.492Z,7.87
2023-05-01T01:25:36.361Z,7.63
2023-05-01T01:31:05.534Z,8.13
2023-05-01T01:36:15.623Z,9.03
2023-05-01T01:41:30.816Z,8.13
2023-05-01T01:46:38.374Z,7.70
2023-05-01T01:51:42.537Z,8.67
2023-05-01T01:56:46.692Z,7.63
2023-05-01T02:01:51.439Z,8.57
2023-05-01T02:06:58.156Z,8.83
2023-05-01T02:12:02.852Z,8.60
2023-05-01T02:17:06.243Z,8.70
2023-05-01T02:22:10.950Z,8.63
2023-05-01T02:27:21.699Z,8.77
2023-05-01T02:32:25.311Z,9.53
2023-05-01T02:37:28.465Z,8.57
2023-05-01T02:42:33.819Z,9.60
2023-05-01T02:47:39.655Z,9.53
2023-05-01T02:52:42.976Z,9.07
2023-05-01T02:58:18.779Z,10.30
2023-05-01T03:03:21.332Z,11.40
2023-05-01T03:08:23.995Z,10.50
2023-05-01T03:13:26.452Z,11.87
2023-05-01T03:18:28.843Z,12.63
2023-05-01T03:23:31.894Z,12.33
2023-05-01T03:28:34.121Z,11.70
2023-05-01T03:33:36.444Z,12.10
2023-05-01T03:38:38.777Z,11.80
2023-05-01T03:43:47.075Z,10.97
2023-05-01T03:49:00.993Z,11.60
2023-05-01T03:54:07.409Z,10.27
2023-05-01T03:59:23.844Z,11.07
2023-05-01T04:04:26.747Z,10.70
2023-05-01T04:09:32.436Z,10.17
2023-05-01T04:14:34.566Z,10.10
2023-05-01T04:19:38.029Z,9.40
2023-05-01T04:24:40.422Z,10.10
2023-05-01T04:29:42.690Z,13.13
2023-05-01T04:34:45.012Z,12.23
2023-05-01T04:39:47.288Z,11.30
2023-05-01T04:44:49.827Z,10.43
2023-05-01T04:49:52.327Z,11.20
2023-05-01T04:54:54.466Z,9.80
2023-05-01T04:59:59.358Z,11.57
2023-05-01T05:05:01.739Z,11.50
2023-05-01T05:10:04.149Z,12.70
2023-05-01T05:15:07.291Z,12.40
2023-05-01T05:20:11.527Z,12.43
2023-05-01T05:25:13.726Z,12.87
2023-05-01T05:30:16.509Z,13.27
2023-05-01T05:35:20.066Z,14.17
2023-05-01T05:40:23.039Z,13.70
2023-05-01T05:45:36.278Z,14.27
2023-05-01T05:50:40.052Z,16.47
2023-05-01T05:55:43.656Z,16.40
2023-05-01T06:00:50.711Z,14.77
2023-05-01T06:05:53.903Z,13.10
2023-05-01T06:10:56.548Z,14.40
2023-05-01T06:15:58.692Z,14.67
2023-05-01T06:21:01.518Z,13.97
2023-05-01T06:26:03.733Z,11.87
2023-05-01T06:31:06.212Z,12.83
2023-05-01T06:36:12.116Z,12.43
2023-05-01T06:41:16.070Z,13.10
2023-05-01T06:46:18.382Z,13.73
2023-05-01T06:51:20.904Z,14.13
2023-05-01T06:56:23.200Z,14.80
2023-05-01T07:01:25.587Z,12.60
2023-05-01T07:06:27.909Z,14.10
2023-05-01T07:11:30.059Z,13.33
2023-05-01T07:16:32.437Z,14.33
2023-05-01T07:21:34.709Z,15.60
2023-05-01T07:26:38.610Z,14.23
2023-05-01T07:31:42.008Z,14.97
2023-05-01T07:36:44.386Z,16.53
2023-05-01T07:41:46.780Z,14.80
2023-05-01T07:46:49.111Z,13.20
2023-05-01T07:51:51.755Z,10.83
2023-05-01T07:56:54.180Z,9.30
2023-05-01T08:01:57.323Z,5.70
2023-05-01T08:06:59.670Z,4.53
2023-05-01T08:12:03.794Z,3.43
2023-05-01T08:17:05.930Z,5.30
2023-05-01T08:22:08.047Z,3.67
2023-05-01T08:27:10.298Z,2.50
2023-05-01T08:32:12.470Z,3.57
2023-05-01T08:37:14.666Z,2.73
2023-05-01T08:42:17.490Z,3.57
2023-05-01T08:47:19.737Z,3.90
2023-05-01T08:52:23.298Z,3.20
2023-05-01T08:57:27.573Z,3.40
2023-05-01T09:02:30.223Z,4.13
2023-05-01T09:07:32.487Z,2.83
2023-05-01T09:12:35.596Z,2.20
2023-05-01T09:17:38.239Z,2.50
2023-05-01T09:22:40.957Z,2.50
2023-05-01T09:27:45.106Z,3.13
2023-05-01T09:33:08.232Z,2.63
2023-05-01T09:38:10.520Z,2.30
2023-05-01T09:43:12.869Z,1.90
2023-05-01T09:48:15.361Z,2.33
2023-05-01T09:53:17.582Z,2.30
2023-05-01T09:58:37.922Z,1.70
2023-05-01T10:03:40.322Z,1.67
2023-05-01T10:08:48.009Z,2.00
2023-05-01T10:14:16.629Z,2.20
2023-05-01T10:19:19.160Z,2.00
2023-05-01T10:24:21.395Z,1.90
2023-05-01T10:29:23.904Z,2.97
2023-05-01T10:34:28.505Z,2.50
2023-05-01T10:39:35.753Z,2.57
2023-05-01T10:44:38.489Z,3.10
2023-05-01T10:50:07.945Z,3.33
2023-05-01T10:55:55.626Z,3.63
2023-05-01T11:07:11.315Z,4.47
2023-05-01T11:12:45.020Z,4.77
2023-05-01T11:17:49.743Z,4.03
2023-05-01T11:22:58.896Z,4.50
2023-05-01T11:28:03.522Z,3.83
2023-05-01T11:33:08.490Z,6.50
2023-05-01T11:38:19.304Z,4.40
2023-05-01T11:43:21.609Z,4.23
2023-05-01T11:48:24.023Z,3.93
2023-05-01T11:53:26.309Z,4.20
2023-05-01T11:58:33.943Z,4.80
2023-05-01T12:03:43.118Z,4.53
2023-05-01T12:08:51.310Z,3.77
2023-05-01T12:13:53.845Z,4.30
2023-05-01T12:18:56.250Z,5.03
2023-05-01T12:24:10.394Z,4.57
2023-05-01T12:29:12.889Z,4.53
2023-05-01T12:34:15.222Z,4.03
2023-05-01T12:39:17.752Z,4.80
2023-05-01T12:44:26.083Z,3.83
2023-05-01T12:49:29.705Z,3.53
2023-05-01T12:54:40.823Z,3.30
2023-05-01T12:59:45.724Z,3.83
2023-05-01T13:04:51.238Z,3.57
2023-05-01T13:10:00.075Z,4.50
2023-05-01T13:15:02.747Z,5.50
2023-05-01T13:20:06.202Z,4.63
2023-05-01T13:25:22.646Z,5.50
2023-05-01T13:30:35.101Z,5.30
2023-05-01T13:35:39.365Z,3.27
2023-05-01T13:40:41.786Z,3.20
2023-05-01T13:45:44.201Z,3.90
2023-05-01T13:50:46.488Z,3.93
2023-05-01T13:55:48.630Z,3.40
2023-05-01T14:00:50.991Z,4.20
2023-05-01T14:05:53.137Z,3.43
2023-05-01T14:10:55.245Z,4.37
2023-05-01T14:15:57.522Z,3.80
2023-05-01T14:21:00.140Z,3.63
2023-05-01T14:26:03.258Z,3.90
2023-05-01T14:31:05.706Z,5.50
2023-05-01T14:36:07.991Z,5.23
2023-05-01T14:41:13.202Z,5.17
2023-05-01T14:46:16.187Z,3.70
2023-05-01T14:51:20.491Z,3.50
2023-05-01T14:56:23.840Z,4.10
2023-05-01T15:01:26.382Z,5.43
2023-05-01T15:06:28.661Z,3.97
2023-05-01T15:11:31.147Z,4.43
2023-05-01T15:16:33.400Z,3.33
2023-05-01T15:21:35.794Z,3.40
2023-05-01T15:26:38.100Z,2.90
2023-05-01T15:31:40.798Z,3.57
2023-05-01T15:36:43.108Z,2.30
2023-05-01T15:41:45.267Z,4.00
2023-05-01T15:46:51.235Z,3.03
2023-05-01T15:51:54.514Z,2.70
2023-05-01T15:56:58.602Z,3.70
2023-05-01T16:02:00.911Z,3.40
2023-05-01T16:07:06.064Z,2.33
2023-05-01T16:12:08.501Z,3.20
2023-05-01T16:17:10.902Z,2.93
2023-05-01T16:22:15.411Z,4.23
2023-05-01T16:27:18.725Z,3.23
2023-05-01T16:32:21.078Z,3.10
2023-05-01T16:37:27.018Z,3.23
2023-05-01T16:42:29.375Z,2.80
2023-05-01T16:47:32.860Z,2.47
2023-05-01T16:52:35.710Z,2.93
2023-05-01T16:57:38.041Z,3.40
2023-05-01T17:02:40.498Z,2.80
2023-05-01T17:07:42.666Z,2.10
2023-05-01T17:12:44.923Z,2.83
2023-05-01T17:17:47.214Z,3.40
2023-05-01T17:22:49.574Z,2.43
2023-05-01T17:27:51.916Z,2.70
2023-05-01T17:32:54.239Z,2.80
2023-05-01T17:37:57.575Z,3.20
2023-05-01T17:43:00.535Z,4.20
2023-05-01T17:48:02.705Z,2.73
2023-05-01T17:53:04.956Z,3.07
2023-05-01T17:58:07.290Z,2.50
2023-05-01T18:03:09.548Z,4.40
2023-05-01T18:08:11.835Z,5.10
2023-05-01T18:13:14.024Z,2.60
2023-05-01T18:18:16.392Z,3.17
2023-05-01T18:23:18.958Z,3.30
2023-05-01T18:28:21.559Z,3.27
2023-05-01T18:33:23.873Z,5.60
2023-05-01T18:38:28.584Z,3.07
2023-05-01T18:43:32.277Z,3.47
2023-05-01T18:48:34.555Z,5.27
2023-05-01T18:53:36.803Z,4.10
2023-05-01T18:58:39.897Z,4.33
2023-05-01T19:03:42.189Z,3.70
2023-05-01T19:08:44.314Z,5.57
2023-05-01T19:13:46.755Z,3.53
2023-05-01T19:18:48.933Z,4.67
2023-05-01T19:23:51.047Z,4.63
2023-05-01T19:28:53.144Z,3.40
2023-05-01T19:33:55.385Z,4.70
2023-05-01T19:38:57.750Z,4.80
2023-05-01T19:43:59.856Z,3.87
2023-05-01T19:49:02.264Z,4.20
2023-05-01T19:54:07.160Z,4.40
2023-05-01T19:59:10.175Z,4.57
2023-05-01T20:04:12.479Z,4.13
2023-05-01T20:09:14.616Z,5.27
2023-05-01T20:14:16.861Z,4.73
2023-05-01T20:19:19.861Z,6.70
2023-05-01T20:24:22.370Z,6.23
2023-05-01T20:29:24.703Z,5.67
2023-05-01T20:34:27.117Z,6.97
2023-05-01T20:39:29.253Z,7.60
2023-05-01T20:44:32.090Z,6.43
2023-05-01T20:49:34.804Z,5.60
2023-05-01T20:54:37.137Z,5.13
2023-05-01T20:59:39.273Z,4.67
2023-05-01T21:04:41.662Z,5.60
2023-05-01T21:09:45.947Z,5.40
2023-05-01T21:14:48.283Z,5.37
2023-05-01T21:19:50.526Z,6.90
2023-05-01T21:24:59.527Z,5.53
2023-05-01T21:30:02.974Z,5.13
2023-05-01T21:35:08.164Z,5.50
2023-05-01T21:40:14.525Z,5.80
2023-05-01T21:45:20.350Z,5.70
2023-05-01T21:50:22.508Z,5.50
2023-05-01T21:55:26.485Z,5.47
2023-05-01T22:00:29.950Z,5.90
2023-05-01T22:05:34.486Z,5.30
2023-05-01T22:10:37.300Z,5.47
2023-05-01T22:15:39.488Z,5.40
2023-05-01T22:20:41.695Z,5.90
2023-05-01T22:25:44.094Z,6.20
2023-05-01T22:30:46.951Z,5.90
2023-05-01T22:35:49.484Z,5.33
2023-05-01T22:40:51.753Z,5.60
2023-05-01T22:45:54.082Z,5.63
2023-05-01T22:50:56.183Z,5.60
2023-05-01T22:55:58.413Z,5.57
2023-05-01T23:01:00.811Z,5.87
2023-05-01T23:06:03.168Z,6.13
2023-05-01T23:11:06.039Z,5.43
2023-05-01T23:16:08.676Z,5.40
2023-05-01T23:21:14.913Z,5.37
2023-05-01T23:26:37.447Z,6.33
2023-05-01T23:31:47.691Z,5.60
2023-05-01T23:36:50.099Z,6.60
2023-05-01T23:41:53.118Z,6.10
2023-05-01T23:46:55.686Z,5.90
2023-05-01T23:51:58.112Z,5.70
2023-05-01T23:57:00.947Z,7.07
